Aeroporto :
LOGIN :

Iscrizione | Disclaimer

   EN    FR    IT 

 










Sommario :    VFR   VFR Marginale   IFR   IFR Intensivo   IFR Molto Intensivo
Visibilità : 
Base nubi : 
>= 8 km
>= 3000ft
5 / 8 km
1000 / 3000 ft
1500m / 5 km
500 / 1000 ft
800 / 1500m
200 / 500 ft
< 800m
< 200 ft
Simboli :   Temporali  Nebbia  Neve Forte  Precipitazioni Forti  Vento > 20 kt
SIGMETs :   Varie  Temporali  Ghiacco  Turbolenza  Onda orograficha  Ceneri Vulcaniche






- Altitudine del aeroporto : 1460 ft


LSMA - Alpnach

ULTIMO METAR :
  • 200720Z 23002KT 9999 OVC022 04/01 Q1015 RMK WHT

METARs OBSOLETI :
  • 200650Z VRB01KT 9999 OVC022 03/02 Q1015 RMK WHT
  • 200620Z 22002KT 9999 OVC025 04/01 Q1015 RMK BLU
  • 200550Z AUTO 19003KT 9999NDV OVC024 04/01 Q1015 RMK
  • 200520Z AUTO 22003KT 9999NDV OVC023 04/00 Q1015 RMK
  • 200450Z AUTO VRB02KT 9999NDV OVC023 04/01 Q1015 RMK

Previsioni scadute.



MetMap, La meteo Aeronautica in un colpo d'occhio ! - Copyright ORBIFLY Dicembre 2007 - Disclaimer

ORBIFLY MET'MAP TEAM :

Programmazione e sviluppo : Alexandra Zaïnal
Concezione e sviluppo : Baudouin d'Aumeries
Co-Programmazione e sviluppo : Marc-Olivier Méhu
Supporto tecnico e logistico : Manuel Goepfert
Aiuto per la traduzione : Arnaldo La Scala

Contatto : metmap@orbifly.com




FONTI E CREDITI :

   NOAA